Impacts TAF Board
For situational awareness. Not to be used for flight planning purposes.
IDs:

KCVS - Clovis/Cannon AFB, NM, US

Issued at 2020 UTC 02 Aug 2021
Updated at 2255 UTC 02 Aug 2021
Potential Impact None Slight Moderate High
Time2158Z 02/23Z 03/00Z 03/01Z 03/02Z 03/03Z 03/04Z 03/05Z 03/06Z 03/07Z 03/08Z 03/09Z 03/10Z 03/11Z>>
Type OBS PRVL PRVL PRVL PRVL PRVL PRVL PRVL PRVL PRVL PRVL PRVL PRVL PRVL
VIS 10 >6 >6 >6 >6 >6 >6 >6 >6 >6 >6 >6 >6 >6
CIG -- -- -- -- 150 150 150 150 150 150 150 150 90 90
Cover FEW FEW SCT SCT BKN BKN BKN BKN BKN BKN BKN BKN BKN BKN
FltCat VFR VFR VFR VFR VFR VFR VFR VFR VFR VFR VFR VFR VFR VFR
WX -- -- -- -- -- -- -- -- -- -- -- -- -- --
WDir 50 60 120 120 140 140 140 140 140 140 140 140 160 160
WSpd 3 10 10 10 6 6 6 6 6 6 6 6 10 10
WGst -- 15 -- -- -- -- -- -- -- -- -- -- -- --
Raw TAF
TAF AMD KCVS 022020Z 0220/0324 06010G15KT 9999 FEW180 QNH3023INS
  BECMG 0300/0301 12010KT 9999 FEW140 SCT170 QNH3024INS
  BECMG 0302/0303 14006KT 9999 BKN150 QNH3022INS
  BECMG 0310/0311 16010KT 9999 BKN090 QNH3020INS
  BECMG 0317/0318 18010G15KT 9999 FEW090 SCT140 QNH3023INS TX27/0222Z TN16/0312Z


Raw METAR
KCVS 022158Z AUTO 05003KT 10SM FEW070 26/12 A3023 RMK AO2 SLP185 T02640117 $
KCVS 022130Z AUTO 10011G17KT 10SM FEW070 27/11 A3024 RMK AO2 WSHFT 29 SLP189 $
KCVS 022058Z AUTO 09006KT 10SM CLR 26/10 A3025 RMK AO2 SLP192 T02580104 57019 $
KCVS 021958Z AUTO 08006KT 10SM FEW200 25/10 A3028 RMK AO2 SLP203 T02540100 $

METAR Board
For situational awareness. Not to be used for flight planning purposes.